sensor_id;sensor_type;location;lat;lon;timestamp;pressure;altitude;pressure_sealevel;temperature;humidity
11621;BME280;5866;49.094;11.900;2023-09-19T00:00:35;95819.50;;;17.92;100.00
11621;BME280;5866;49.094;11.900;2023-09-19T00:03:03;95828.44;;;18.10;100.00
11621;BME280;5866;49.094;11.900;2023-09-19T00:05:34;95827.06;;;18.01;100.00
11621;BME280;5866;49.094;11.900;2023-09-19T00:08:02;95820.72;;;17.96;100.00
11621;BME280;5866;49.094;11.900;2023-09-19T00:10:31;95825.19;;;18.02;100.00
11621;BME280;5866;49.094;11.900;2023-09-19T00:13:02;95826.41;;;17.75;100.00
11621;BME280;5866;49.094;11.900;2023-09-19T00:15:39;95819.22;;;18.00;100.00
11621;BME280;5866;49.094;11.900;2023-09-19T00:18:08;95821.34;;;17.91;100.00
11621;BME280;5866;49.094;11.900;2023-09-19T00:20:36;95813.03;;;18.31;100.00
11621;BME280;5866;49.094;11.900;2023-09-19T00:23:05;95821.69;;;18.01;100.00
11621;BME280;5866;49.094;11.900;2023-09-19T00:25:35;95819.19;;;18.06;100.00
11621;BME280;5866;49.094;11.900;2023-09-19T00:28:04;95817.97;;;18.02;100.00
11621;BME280;5866;49.094;11.900;2023-09-19T00:30:33;95814.88;;;18.05;100.00
11621;BME280;5866;49.094;11.900;2023-09-19T00:33:03;95815.19;;;18.40;100.00
11621;BME280;5866;49.094;11.900;2023-09-19T00:35:32;95820.75;;;17.89;100.00
11621;BME280;5866;49.094;11.900;2023-09-19T00:38:00;95832.66;;;17.69;100.00
11621;BME280;5866;49.094;11.900;2023-09-19T00:40:29;95823.16;;;17.66;100.00
11621;BME280;5866;49.094;11.900;2023-09-19T00:42:59;95824.22;;;17.96;100.00
11621;BME280;5866;49.094;11.900;2023-09-19T00:45:27;95815.13;;;17.66;100.00
11621;BME280;5866;49.094;11.900;2023-09-19T00:47:55;95828.13;;;17.69;100.00
11621;BME280;5866;49.094;11.900;2023-09-19T00:50:27;95833.75;;;17.61;100.00
11621;BME280;5866;49.094;11.900;2023-09-19T00:52:55;95833.81;;;17.79;100.00
11621;BME280;5866;49.094;11.900;2023-09-19T00:55:24;95834.94;;;17.65;100.00
11621;BME280;5866;49.094;11.900;2023-09-19T00:57:52;95836.44;;;17.48;100.00
11621;BME280;5866;49.094;11.900;2023-09-19T01:00:20;95833.47;;;17.69;100.00
11621;BME280;5866;49.094;11.900;2023-09-19T01:02:49;95829.13;;;17.99;100.00
11621;BME280;5866;49.094;11.900;2023-09-19T01:05:17;95823.06;;;18.10;100.00
11621;BME280;5866;49.094;11.900;2023-09-19T01:07:47;95826.00;;;18.34;100.00
11621;BME280;5866;49.094;11.900;2023-09-19T01:10:17;95827.38;;;18.43;100.00
11621;BME280;5866;49.094;11.900;2023-09-19T01:12:52;95835.00;;;18.46;100.00
11621;BME280;5866;49.094;11.900;2023-09-19T01:15:30;95827.53;;;18.90;100.00
11621;BME280;5866;49.094;11.900;2023-09-19T01:18:04;95830.28;;;18.66;100.00
11621;BME280;5866;49.094;11.900;2023-09-19T01:20:39;95840.72;;;18.24;100.00
11621;BME280;5866;49.094;11.900;2023-09-19T01:23:18;95840.31;;;17.96;100.00
11621;BME280;5866;49.094;11.900;2023-09-19T01:26:05;95841.16;;;18.21;100.00
11621;BME280;5866;49.094;11.900;2023-09-19T01:28:45;95836.22;;;18.18;100.00
11621;BME280;5866;49.094;11.900;2023-09-19T01:31:23;95845.47;;;18.22;100.00
11621;BME280;5866;49.094;11.900;2023-09-19T01:34:00;95847.47;;;18.09;100.00
11621;BME280;5866;49.094;11.900;2023-09-19T01:36:29;95843.53;;;18.36;100.00
11621;BME280;5866;49.094;11.900;2023-09-19T01:38:58;95856.44;;;18.21;100.00
11621;BME280;5866;49.094;11.900;2023-09-19T01:41:36;95861.44;;;17.86;100.00
11621;BME280;5866;49.094;11.900;2023-09-19T01:44:09;95862.34;;;17.74;100.00
11621;BME280;5866;49.094;11.900;2023-09-19T01:46:41;95867.91;;;17.72;100.00
11621;BME280;5866;49.094;11.900;2023-09-19T01:49:22;95868.91;;;17.84;100.00
11621;BME280;5866;49.094;11.900;2023-09-19T01:51:58;95866.97;;;17.91;100.00
11621;BME280;5866;49.094;11.900;2023-09-19T01:54:33;95862.91;;;18.13;100.00
11621;BME280;5866;49.094;11.900;2023-09-19T01:57:08;95854.56;;;18.28;100.00
11621;BME280;5866;49.094;11.900;2023-09-19T01:59:43;95862.63;;;17.59;100.00
11621;BME280;5866;49.094;11.900;2023-09-19T02:02:15;95861.34;;;17.68;100.00
11621;BME280;5866;49.094;11.900;2023-09-19T02:04:44;95861.59;;;17.60;100.00
11621;BME280;5866;49.094;11.900;2023-09-19T02:07:12;95866.41;;;17.83;100.00
11621;BME280;5866;49.094;11.900;2023-09-19T02:09:41;95863.75;;;17.76;100.00
11621;BME280;5866;49.094;11.900;2023-09-19T02:12:09;95861.59;;;17.91;100.00
11621;BME280;5866;49.094;11.900;2023-09-19T02:14:37;95863.16;;;17.74;100.00
11621;BME280;5866;49.094;11.900;2023-09-19T02:17:04;95861.94;;;18.01;100.00
11621;BME280;5866;49.094;11.900;2023-09-19T02:19:37;95860.06;;;18.08;100.00
11621;BME280;5866;49.094;11.900;2023-09-19T02:22:05;95862.63;;;17.97;100.00
11621;BME280;5866;49.094;11.900;2023-09-19T02:24:34;95868.00;;;17.97;100.00
11621;BME280;5866;49.094;11.900;2023-09-19T02:27:02;95866.88;;;17.73;100.00
11621;BME280;5866;49.094;11.900;2023-09-19T02:29:32;95868.50;;;17.74;100.00
11621;BME280;5866;49.094;11.900;2023-09-19T02:32:00;95865.38;;;17.84;100.00
11621;BME280;5866;49.094;11.900;2023-09-19T02:34:31;95866.97;;;17.91;100.00
11621;BME280;5866;49.094;11.900;2023-09-19T02:37:00;95863.59;;;17.71;100.00
11621;BME280;5866;49.094;11.900;2023-09-19T02:39:28;95867.19;;;17.90;100.00
11621;BME280;5866;49.094;11.900;2023-09-19T02:41:55;95870.09;;;17.51;100.00
11621;BME280;5866;49.094;11.900;2023-09-19T02:44:23;95863.84;;;17.63;100.00
11621;BME280;5866;49.094;11.900;2023-09-19T02:46:51;95875.47;;;17.37;100.00
11621;BME280;5866;49.094;11.900;2023-09-19T02:49:19;95876.06;;;17.53;100.00
11621;BME280;5866;49.094;11.900;2023-09-19T02:51:46;95876.75;;;17.79;100.00
11621;BME280;5866;49.094;11.900;2023-09-19T02:54:15;95884.25;;;17.64;100.00
11621;BME280;5866;49.094;11.900;2023-09-19T02:56:43;95888.88;;;17.88;100.00
11621;BME280;5866;49.094;11.900;2023-09-19T02:59:11;95887.72;;;17.78;100.00
11621;BME280;5866;49.094;11.900;2023-09-19T03:01:39;95888.69;;;17.83;100.00
11621;BME280;5866;49.094;11.900;2023-09-19T03:04:07;95892.34;;;17.95;100.00
11621;BME280;5866;49.094;11.900;2023-09-19T03:06:34;95890.72;;;17.94;100.00
11621;BME280;5866;49.094;11.900;2023-09-19T03:09:02;95893.19;;;17.89;100.00
11621;BME280;5866;49.094;11.900;2023-09-19T03:11:33;95894.22;;;17.57;100.00
11621;BME280;5866;49.094;11.900;2023-09-19T03:14:01;95904.13;;;17.43;100.00
11621;BME280;5866;49.094;11.900;2023-09-19T03:16:30;95908.75;;;17.17;100.00
11621;BME280;5866;49.094;11.900;2023-09-19T03:18:58;95920.59;;;17.47;100.00
11621;BME280;5866;49.094;11.900;2023-09-19T03:21:26;95911.91;;;17.65;100.00
11621;BME280;5866;49.094;11.900;2023-09-19T03:23:56;95917.00;;;17.79;100.00
11621;BME280;5866;49.094;11.900;2023-09-19T03:26:23;95915.81;;;18.06;100.00
11621;BME280;5866;49.094;11.900;2023-09-19T03:28:54;95921.53;;;17.79;100.00
11621;BME280;5866;49.094;11.900;2023-09-19T03:31:22;95922.56;;;17.84;100.00
11621;BME280;5866;49.094;11.900;2023-09-19T03:33:50;95920.94;;;17.77;100.00
11621;BME280;5866;49.094;11.900;2023-09-19T03:36:17;95928.09;;;17.89;100.00
11621;BME280;5866;49.094;11.900;2023-09-19T03:38:45;95920.94;;;17.70;100.00
11621;BME280;5866;49.094;11.900;2023-09-19T03:41:12;95924.66;;;17.76;100.00
11621;BME280;5866;49.094;11.900;2023-09-19T03:43:41;95928.84;;;17.65;100.00
11621;BME280;5866;49.094;11.900;2023-09-19T03:46:10;95922.84;;;17.70;100.00
11621;BME280;5866;49.094;11.900;2023-09-19T03:48:39;95928.03;;;17.52;100.00
11621;BME280;5866;49.094;11.900;2023-09-19T03:51:07;95927.22;;;17.51;100.00
11621;BME280;5866;49.094;11.900;2023-09-19T03:53:34;95922.41;;;17.66;100.00
11621;BME280;5866;49.094;11.900;2023-09-19T03:56:02;95924.44;;;17.77;100.00
11621;BME280;5866;49.094;11.900;2023-09-19T03:58:30;95928.03;;;17.45;100.00
11621;BME280;5866;49.094;11.900;2023-09-19T04:00:57;95932.00;;;17.42;100.00
11621;BME280;5866;49.094;11.900;2023-09-19T04:03:27;95933.47;;;17.32;100.00
11621;BME280;5866;49.094;11.900;2023-09-19T04:06:02;95928.66;;;17.47;100.00
11621;BME280;5866;49.094;11.900;2023-09-19T04:08:29;95939.59;;;17.52;100.00
11621;BME280;5866;49.094;11.900;2023-09-19T04:10:58;95929.59;;;17.72;100.00
11621;BME280;5866;49.094;11.900;2023-09-19T04:13:25;95930.50;;;17.97;100.00
11621;BME280;5866;49.094;11.900;2023-09-19T04:15:53;95937.03;;;17.70;100.00
11621;BME280;5866;49.094;11.900;2023-09-19T04:18:21;95935.81;;;17.73;100.00
11621;BME280;5866;49.094;11.900;2023-09-19T04:20:51;95943.50;;;17.63;100.00
11621;BME280;5866;49.094;11.900;2023-09-19T04:23:18;95948.66;;;17.51;100.00
11621;BME280;5866;49.094;11.900;2023-09-19T04:25:46;95942.84;;;17.67;100.00
11621;BME280;5866;49.094;11.900;2023-09-19T04:28:14;95943.03;;;17.72;100.00
11621;BME280;5866;49.094;11.900;2023-09-19T04:30:42;95942.22;;;17.72;100.00
11621;BME280;5866;49.094;11.900;2023-09-19T04:33:10;95940.13;;;17.80;100.00
11621;BME280;5866;49.094;11.900;2023-09-19T04:35:40;95946.78;;;17.65;100.00
11621;BME280;5866;49.094;11.900;2023-09-19T04:38:10;95949.69;;;17.63;100.00
11621;BME280;5866;49.094;11.900;2023-09-19T04:40:38;95950.91;;;17.67;100.00
11621;BME280;5866;49.094;11.900;2023-09-19T04:43:06;95953.63;;;17.54;100.00
11621;BME280;5866;49.094;11.900;2023-09-19T04:45:34;95967.47;;;17.38;100.00
11621;BME280;5866;49.094;11.900;2023-09-19T04:48:02;95968.34;;;17.19;100.00
11621;BME280;5866;49.094;11.900;2023-09-19T04:50:30;95966.03;;;17.35;100.00
11621;BME280;5866;49.094;11.900;2023-09-19T04:52:57;95969.31;;;17.51;100.00
11621;BME280;5866;49.094;11.900;2023-09-19T04:55:28;95974.22;;;17.60;100.00
11621;BME280;5866;49.094;11.900;2023-09-19T04:57:57;95972.97;;;17.69;100.00
11621;BME280;5866;49.094;11.900;2023-09-19T05:00:24;95971.78;;;17.52;100.00
11621;BME280;5866;49.094;11.900;2023-09-19T05:02:55;95977.56;;;17.42;100.00
11621;BME280;5866;49.094;11.900;2023-09-19T05:05:24;95987.94;;;17.13;100.00
11621;BME280;5866;49.094;11.900;2023-09-19T05:07:52;95980.06;;;17.51;100.00
11621;BME280;5866;49.094;11.900;2023-09-19T05:10:22;95977.91;;;17.72;100.00
11621;BME280;5866;49.094;11.900;2023-09-19T05:12:54;95972.09;;;18.26;100.00
11621;BME280;5866;49.094;11.900;2023-09-19T05:15:21;95975.22;;;18.16;100.00
11621;BME280;5866;49.094;11.900;2023-09-19T05:17:49;95978.34;;;18.51;100.00
11621;BME280;5866;49.094;11.900;2023-09-19T05:20:22;95976.66;;;18.19;100.00
11621;BME280;5866;49.094;11.900;2023-09-19T05:23:00;95979.69;;;18.67;100.00
11621;BME280;5866;49.094;11.900;2023-09-19T05:25:35;95980.34;;;18.24;100.00
11621;BME280;5866;49.094;11.900;2023-09-19T05:28:06;95978.84;;;18.28;100.00
11621;BME280;5866;49.094;11.900;2023-09-19T05:30:34;95985.59;;;18.06;100.00
11621;BME280;5866;49.094;11.900;2023-09-19T05:33:05;95991.91;;;17.81;100.00
11621;BME280;5866;49.094;11.900;2023-09-19T05:35:33;95985.59;;;17.56;100.00
11621;BME280;5866;49.094;11.900;2023-09-19T05:38:03;95989.09;;;17.56;100.00
11621;BME280;5866;49.094;11.900;2023-09-19T05:40:32;96000.66;;;17.57;100.00
11621;BME280;5866;49.094;11.900;2023-09-19T05:42:59;95999.03;;;17.29;100.00
11621;BME280;5866;49.094;11.900;2023-09-19T05:45:28;95998.59;;;17.26;100.00
11621;BME280;5866;49.094;11.900;2023-09-19T05:48:07;96006.06;;;17.17;100.00
11621;BME280;5866;49.094;11.900;2023-09-19T05:50:35;96004.41;;;17.36;100.00
11621;BME280;5866;49.094;11.900;2023-09-19T05:53:03;96008.53;;;17.19;100.00
11621;BME280;5866;49.094;11.900;2023-09-19T05:55:31;96003.75;;;17.54;100.00
11621;BME280;5866;49.094;11.900;2023-09-19T05:57:59;96008.47;;;17.45;100.00
11621;BME280;5866;49.094;11.900;2023-09-19T06:00:26;96010.53;;;17.43;100.00
11621;BME280;5866;49.094;11.900;2023-09-19T06:02:58;96008.06;;;17.48;100.00
11621;BME280;5866;49.094;11.900;2023-09-19T06:05:27;96010.31;;;17.71;100.00
11621;BME280;5866;49.094;11.900;2023-09-19T06:07:56;96016.13;;;18.12;100.00
11621;BME280;5866;49.094;11.900;2023-09-19T06:10:27;96006.22;;;19.55;100.00
11621;BME280;5866;49.094;11.900;2023-09-19T06:12:55;96000.50;;;20.18;100.00
11621;BME280;5866;49.094;11.900;2023-09-19T06:15:24;96006.88;;;20.05;100.00
11621;BME280;5866;49.094;11.900;2023-09-19T06:17:54;96020.44;;;19.99;100.00
11621;BME280;5866;49.094;11.900;2023-09-19T06:20:24;96023.91;;;20.17;100.00
11621;BME280;5866;49.094;11.900;2023-09-19T06:22:53;96015.78;;;19.69;100.00
11621;BME280;5866;49.094;11.900;2023-09-19T06:25:21;96012.97;;;19.83;100.00
11621;BME280;5866;49.094;11.900;2023-09-19T06:27:50;96026.47;;;18.84;100.00
11621;BME280;5866;49.094;11.900;2023-09-19T06:30:20;96015.41;;;18.74;100.00
11621;BME280;5866;49.094;11.900;2023-09-19T06:32:49;96034.97;;;18.50;100.00
11621;BME280;5866;49.094;11.900;2023-09-19T06:35:17;96031.88;;;18.46;100.00
11621;BME280;5866;49.094;11.900;2023-09-19T06:37:46;96037.03;;;18.48;100.00
11621;BME280;5866;49.094;11.900;2023-09-19T06:40:14;96042.81;;;18.51;100.00
11621;BME280;5866;49.094;11.900;2023-09-19T06:42:45;96040.78;;;18.78;100.00
11621;BME280;5866;49.094;11.900;2023-09-19T06:45:13;96045.09;;;18.79;100.00
11621;BME280;5866;49.094;11.900;2023-09-19T06:47:44;96036.53;;;19.20;100.00
11621;BME280;5866;49.094;11.900;2023-09-19T06:50:12;96030.56;;;20.51;100.00
11621;BME280;5866;49.094;11.900;2023-09-19T06:52:41;96035.19;;;21.03;100.00
11621;BME280;5866;49.094;11.900;2023-09-19T06:55:10;96024.94;;;21.23;100.00
11621;BME280;5866;49.094;11.900;2023-09-19T06:57:39;96035.75;;;21.93;100.00
11621;BME280;5866;49.094;11.900;2023-09-19T07:00:10;96043.38;;;21.61;100.00
11621;BME280;5866;49.094;11.900;2023-09-19T07:02:45;96050.19;;;21.87;98.60
11621;BME280;5866;49.094;11.900;2023-09-19T07:05:13;96049.34;;;21.98;100.00
11621;BME280;5866;49.094;11.900;2023-09-19T07:07:40;96050.41;;;23.05;91.20
11621;BME280;5866;49.094;11.900;2023-09-19T07:10:11;96048.06;;;23.25;85.92
11621;BME280;5866;49.094;11.900;2023-09-19T07:12:39;96049.44;;;23.94;80.83
11621;BME280;5866;49.094;11.900;2023-09-19T07:15:08;96053.34;;;22.86;86.71
11621;BME280;5866;49.094;11.900;2023-09-19T07:17:36;96052.94;;;22.66;90.37
11621;BME280;5866;49.094;11.900;2023-09-19T07:20:05;96048.03;;;22.12;94.66
11621;BME280;5866;49.094;11.900;2023-09-19T07:22:34;96059.31;;;21.74;98.50
11621;BME280;5866;49.094;11.900;2023-09-19T07:25:03;96058.84;;;21.89;98.69
11621;BME280;5866;49.094;11.900;2023-09-19T07:27:32;96055.69;;;23.28;86.38
11621;BME280;5866;49.094;11.900;2023-09-19T07:30:00;96066.59;;;23.16;83.70
11621;BME280;5866;49.094;11.900;2023-09-19T07:32:28;96054.81;;;24.27;78.40
11621;BME280;5866;49.094;11.900;2023-09-19T07:34:55;96059.22;;;24.55;75.41
11621;BME280;5866;49.094;11.900;2023-09-19T07:37:23;96055.28;;;25.15;68.48
11621;BME280;5866;49.094;11.900;2023-09-19T07:39:52;96064.50;;;21.99;87.80
11621;BME280;5866;49.094;11.900;2023-09-19T07:42:20;96069.38;;;21.21;96.96
11621;BME280;5866;49.094;11.900;2023-09-19T07:44:49;96073.06;;;21.96;95.28
11621;BME280;5866;49.094;11.900;2023-09-19T07:47:17;96074.03;;;21.02;96.96
11621;BME280;5866;49.094;11.900;2023-09-19T07:49:46;96076.22;;;21.58;100.00
11621;BME280;5866;49.094;11.900;2023-09-19T07:52:13;96078.34;;;20.74;100.00
11621;BME280;5866;49.094;11.900;2023-09-19T07:54:42;96095.44;;;19.95;100.00
11621;BME280;5866;49.094;11.900;2023-09-19T07:57:10;96096.50;;;19.51;100.00
11621;BME280;5866;49.094;11.900;2023-09-19T07:59:38;96093.19;;;19.92;100.00
11621;BME280;5866;49.094;11.900;2023-09-19T08:02:09;96102.59;;;18.78;100.00
11621;BME280;5866;49.094;11.900;2023-09-19T08:04:42;96100.41;;;19.24;100.00
11621;BME280;5866;49.094;11.900;2023-09-19T08:07:10;96107.75;;;19.66;100.00
11621;BME280;5866;49.094;11.900;2023-09-19T08:09:37;96104.81;;;20.47;100.00
11621;BME280;5866;49.094;11.900;2023-09-19T08:12:05;96107.03;;;21.27;100.00
11621;BME280;5866;49.094;11.900;2023-09-19T08:14:37;96102.91;;;22.01;95.32
11621;BME280;5866;49.094;11.900;2023-09-19T08:17:07;96101.94;;;22.30;88.76
11621;BME280;5866;49.094;11.900;2023-09-19T08:19:37;96095.72;;;22.69;85.51
11621;BME280;5866;49.094;11.900;2023-09-19T08:22:08;96090.63;;;24.51;72.09
11621;BME280;5866;49.094;11.900;2023-09-19T08:24:36;96098.66;;;23.24;77.54
11621;BME280;5866;49.094;11.900;2023-09-19T08:27:04;96106.66;;;22.00;84.91
11621;BME280;5866;49.094;11.900;2023-09-19T08:29:35;96103.50;;;20.86;97.79
11621;BME280;5866;49.094;11.900;2023-09-19T08:32:03;96113.09;;;21.11;100.00
11621;BME280;5866;49.094;11.900;2023-09-19T08:34:31;96119.41;;;20.76;100.00
11621;BME280;5866;49.094;11.900;2023-09-19T08:37:01;96114.75;;;20.10;100.00
11621;BME280;5866;49.094;11.900;2023-09-19T08:39:29;96115.47;;;20.42;100.00
11621;BME280;5866;49.094;11.900;2023-09-19T08:42:01;96107.19;;;20.55;100.00
11621;BME280;5866;49.094;11.900;2023-09-19T08:44:28;96118.06;;;19.69;100.00
11621;BME280;5866;49.094;11.900;2023-09-19T08:47:03;96116.03;;;20.08;100.00
11621;BME280;5866;49.094;11.900;2023-09-19T08:49:38;96130.63;;;18.95;100.00
11621;BME280;5866;49.094;11.900;2023-09-19T08:52:19;96144.81;;;19.02;100.00
11621;BME280;5866;49.094;11.900;2023-09-19T08:54:48;96142.28;;;18.76;100.00
11621;BME280;5866;49.094;11.900;2023-09-19T08:57:19;96143.59;;;19.29;100.00
11621;BME280;5866;49.094;11.900;2023-09-19T08:59:48;96145.84;;;19.88;100.00
11621;BME280;5866;49.094;11.900;2023-09-19T09:02:17;96146.31;;;20.03;100.00
11621;BME280;5866;49.094;11.900;2023-09-19T09:04:46;96142.34;;;19.88;100.00
11621;BME280;5866;49.094;11.900;2023-09-19T09:07:19;96159.09;;;19.90;100.00
11621;BME280;5866;49.094;11.900;2023-09-19T09:09:47;96148.97;;;20.28;100.00
11621;BME280;5866;49.094;11.900;2023-09-19T09:12:15;96155.03;;;20.78;100.00
11621;BME280;5866;49.094;11.900;2023-09-19T09:14:45;96149.81;;;20.65;100.00
11621;BME280;5866;49.094;11.900;2023-09-19T09:17:12;96154.66;;;20.20;100.00
11621;BME280;5866;49.094;11.900;2023-09-19T09:19:40;96156.97;;;20.16;100.00
11621;BME280;5866;49.094;11.900;2023-09-19T09:22:10;96134.59;;;20.70;90.59
11621;BME280;5866;49.094;11.900;2023-09-19T09:24:51;96129.06;;;20.95;92.22
11621;BME280;5866;49.094;11.900;2023-09-19T09:27:20;96144.78;;;21.16;95.40
11621;BME280;5866;49.094;11.900;2023-09-19T09:29:51;96155.75;;;21.97;83.95
11621;BME280;5866;49.094;11.900;2023-09-19T09:32:23;96155.03;;;22.36;80.81
11621;BME280;5866;49.094;11.900;2023-09-19T09:34:53;96163.00;;;22.31;76.91
11621;BME280;5866;49.094;11.900;2023-09-19T09:37:24;96161.72;;;22.45;73.48
11621;BME280;5866;49.094;11.900;2023-09-19T09:39:55;96163.00;;;22.43;72.36
11621;BME280;5866;49.094;11.900;2023-09-19T09:42:32;96163.28;;;22.18;72.59
11621;BME280;5866;49.094;11.900;2023-09-19T09:45:12;96170.91;;;21.86;75.27
11621;BME280;5866;49.094;11.900;2023-09-19T09:47:44;96168.41;;;22.31;71.75
11621;BME280;5866;49.094;11.900;2023-09-19T09:50:28;96164.78;;;22.49;71.56
11621;BME280;5866;49.094;11.900;2023-09-19T09:53:19;96167.22;;;22.50;73.66
11621;BME280;5866;49.094;11.900;2023-09-19T09:56:02;96162.41;;;23.04;71.81
11621;BME280;5866;49.094;11.900;2023-09-19T09:58:33;96166.03;;;24.15;66.89
11621;BME280;5866;49.094;11.900;2023-09-19T10:01:02;96170.28;;;22.42;68.67
11621;BME280;5866;49.094;11.900;2023-09-19T10:03:36;96153.69;;;23.30;69.49
11621;BME280;5866;49.094;11.900;2023-09-19T10:06:10;96159.28;;;22.32;72.94
11621;BME280;5866;49.094;11.900;2023-09-19T10:09:02;96167.28;;;20.19;86.28
11621;BME280;5866;49.094;11.900;2023-09-19T10:11:41;96181.75;;;19.75;100.00
11621;BME280;5866;49.094;11.900;2023-09-19T10:14:11;96177.28;;;20.37;97.44
11621;BME280;5866;49.094;11.900;2023-09-19T10:16:41;96175.69;;;20.84;94.98
11621;BME280;5866;49.094;11.900;2023-09-19T10:19:16;96177.81;;;22.40;82.92
11621;BME280;5866;49.094;11.900;2023-09-19T10:21:53;96187.19;;;21.80;80.62
11621;BME280;5866;49.094;11.900;2023-09-19T10:24:22;96185.25;;;22.22;78.79
11621;BME280;5866;49.094;11.900;2023-09-19T10:26:53;96181.44;;;22.69;79.14
11621;BME280;5866;49.094;11.900;2023-09-19T10:29:21;96168.50;;;23.11;71.03
11621;BME280;5866;49.094;11.900;2023-09-19T10:31:52;96172.81;;;22.83;74.78
11621;BME280;5866;49.094;11.900;2023-09-19T10:34:20;96167.94;;;22.57;73.75
11621;BME280;5866;49.094;11.900;2023-09-19T10:36:51;96165.28;;;22.85;78.73
11621;BME280;5866;49.094;11.900;2023-09-19T10:39:18;96166.19;;;24.42;68.41
11621;BME280;5866;49.094;11.900;2023-09-19T10:41:50;96162.94;;;24.23;63.88
11621;BME280;5866;49.094;11.900;2023-09-19T10:44:24;96177.94;;;23.81;68.64
11621;BME280;5866;49.094;11.900;2023-09-19T10:46:52;96168.72;;;24.70;64.13
11621;BME280;5866;49.094;11.900;2023-09-19T10:49:21;96167.19;;;24.36;66.21
11621;BME280;5866;49.094;11.900;2023-09-19T10:51:51;96173.88;;;23.67;67.32
11621;BME280;5866;49.094;11.900;2023-09-19T10:54:22;96176.28;;;22.44;72.66
11621;BME280;5866;49.094;11.900;2023-09-19T10:56:53;96187.81;;;22.63;76.15
11621;BME280;5866;49.094;11.900;2023-09-19T10:59:26;96171.63;;;23.19;70.65
11621;BME280;5866;49.094;11.900;2023-09-19T11:02:16;96179.81;;;23.97;67.32
11621;BME280;5866;49.094;11.900;2023-09-19T11:04:45;96181.09;;;23.61;68.96
11621;BME280;5866;49.094;11.900;2023-09-19T11:07:15;96176.22;;;23.75;67.42
11621;BME280;5866;49.094;11.900;2023-09-19T11:09:44;96175.28;;;23.86;67.64
11621;BME280;5866;49.094;11.900;2023-09-19T11:12:48;96181.63;;;23.75;65.24
11621;BME280;5866;49.094;11.900;2023-09-19T11:21:51;96166.81;;;22.81;68.43
11621;BME280;5866;49.094;11.900;2023-09-19T11:24:28;96184.69;;;23.50;63.53
11621;BME280;5866;49.094;11.900;2023-09-19T11:27:14;96178.47;;;23.50;63.61
11621;BME280;5866;49.094;11.900;2023-09-19T11:29:44;96175.00;;;23.38;65.36
11621;BME280;5866;49.094;11.900;2023-09-19T11:32:12;96181.84;;;23.29;64.96
11621;BME280;5866;49.094;11.900;2023-09-19T11:34:46;96172.75;;;23.07;67.33
11621;BME280;5866;49.094;11.900;2023-09-19T11:40:37;96169.47;;;23.05;66.96
11621;BME280;5866;49.094;11.900;2023-09-19T11:43:28;96179.22;;;22.66;68.72
11621;BME280;5866;49.094;11.900;2023-09-19T11:46:04;96171.31;;;21.01;77.08
11621;BME280;5866;49.094;11.900;2023-09-19T11:48:32;96173.41;;;21.58;80.42
11621;BME280;5866;49.094;11.900;2023-09-19T11:51:14;96170.25;;;22.77;70.45
11621;BME280;5866;49.094;11.900;2023-09-19T11:53:46;96170.63;;;23.09;68.96
11621;BME280;5866;49.094;11.900;2023-09-19T11:56:18;96168.72;;;23.21;67.04
11621;BME280;5866;49.094;11.900;2023-09-19T11:58:48;96160.94;;;22.84;67.75
11621;BME280;5866;49.094;11.900;2023-09-19T12:01:23;96168.78;;;21.88;75.57
11621;BME280;5866;49.094;11.900;2023-09-19T12:03:53;96169.38;;;22.13;74.46
11621;BME280;5866;49.094;11.900;2023-09-19T12:06:25;96172.16;;;22.76;74.99
11621;BME280;5866;49.094;11.900;2023-09-19T12:08:53;96163.25;;;23.77;63.91
11621;BME280;5866;49.094;11.900;2023-09-19T12:11:23;96166.38;;;23.86;62.74
11621;BME280;5866;49.094;11.900;2023-09-19T12:13:52;96176.25;;;22.79;68.25
11621;BME280;5866;49.094;11.900;2023-09-19T12:16:23;96168.13;;;23.19;71.58
11621;BME280;5866;49.094;11.900;2023-09-19T12:18:50;96171.25;;;23.55;65.38
11621;BME280;5866;49.094;11.900;2023-09-19T12:21:24;96165.38;;;23.58;60.86
11621;BME280;5866;49.094;11.900;2023-09-19T12:24:14;96166.31;;;22.10;64.47
11621;BME280;5866;49.094;11.900;2023-09-19T12:26:47;96168.16;;;22.67;71.51
11621;BME280;5866;49.094;11.900;2023-09-19T12:29:19;96157.16;;;24.20;58.76
11621;BME280;5866;49.094;11.900;2023-09-19T12:31:51;96143.66;;;23.14;57.69
11621;BME280;5866;49.094;11.900;2023-09-19T12:34:23;96147.81;;;23.05;59.80
11621;BME280;5866;49.094;11.900;2023-09-19T12:37:20;96147.44;;;22.84;58.66
11621;BME280;5866;49.094;11.900;2023-09-19T12:39:49;96154.28;;;21.18;61.75
11621;BME280;5866;49.094;11.900;2023-09-19T12:42:23;96159.63;;;22.01;59.86
11621;BME280;5866;49.094;11.900;2023-09-19T12:44:51;96139.13;;;22.63;58.43
11621;BME280;5866;49.094;11.900;2023-09-19T12:47:22;96152.97;;;20.91;66.03
11621;BME280;5866;49.094;11.900;2023-09-19T12:50:08;96148.53;;;22.49;61.33
11621;BME280;5866;49.094;11.900;2023-09-19T12:52:41;96148.50;;;23.40;56.24
11621;BME280;5866;49.094;11.900;2023-09-19T12:55:20;96152.84;;;23.13;57.03
11621;BME280;5866;49.094;11.900;2023-09-19T12:58:02;96143.78;;;21.93;59.18
11621;BME280;5866;49.094;11.900;2023-09-19T13:00:36;96151.50;;;21.89;60.57
11621;BME280;5866;49.094;11.900;2023-09-19T13:03:16;96152.06;;;21.80;61.47
11621;BME280;5866;49.094;11.900;2023-09-19T13:05:47;96140.84;;;21.42;60.88
11621;BME280;5866;49.094;11.900;2023-09-19T13:08:18;96144.47;;;22.23;61.82
11621;BME280;5866;49.094;11.900;2023-09-19T13:11:09;96146.56;;;23.52;57.16
11621;BME280;5866;49.094;11.900;2023-09-19T13:13:41;96126.94;;;24.11;53.93
11621;BME280;5866;49.094;11.900;2023-09-19T13:16:15;96134.00;;;23.96;55.14
11621;BME280;5866;49.094;11.900;2023-09-19T13:18:47;96128.78;;;24.66;51.84
11621;BME280;5866;49.094;11.900;2023-09-19T13:21:27;96120.38;;;25.10;50.82